Warning: Javascript must be enabled to use all the features on this page!


Page Loading - Please Wait...

Click to hideNews Bulletins
Click to hide state-specific text

NOTE: From May 7 to May 13; the IL offices of the USGS Water Science Center are transitioning to a new data management software package. While you may not notice this transition, some sites may have problems or delays in being updated. We are actively monitoring these conditions and are resolving them as quickly as possible.


Current Conditions for Illinois: Groundwater -- 42 site(s) found

PROVISIONAL DATA SUBJECT TO REVISION




Customize table to display other current-condition parameters
Station
Number
Station name Date/Time Depth
to
water
level,
feet
below
LSD
Elev-
ation,
feet
above
NGVD
Group Champaign County
401654088212001 21N7E-13.4h1 (CHAM08-09A)  04/27 07:45 CST *** -- 
401654088212004 21N7E-13.4h4 (CHAM08-09WT)  04/27 08:00 CST 9.13 -- 
Group Cook County
420457088105801 42N9E-28.2a (South Barrington)  04/27 08:15 CST 68.44 -- 
Group Lake County
421132088085901 43N9E-23.4e1 (North Barrington)  04/27 08:15 CST 61.64 -- 
421241088101801 43N9E-15.4e1 (Lake Barrington)  04/27 08:15 CST 19.12 -- 
Group Lee County
413743089310101 19N8E-13.1a1 (LEE-92F)  04/27 07:45 CST 2.85 -- 
413743089310102 19N8E-13.1a2 (LEE-92E)  04/27 07:45 CST 21.77 -- 
Group Mchenry County
421056088380801 43N5E-27.4h1 (14-RIL-S)  04/27 08:15 CST 6.39 -- 
421120088281801 43N7E-19.8d (HUNT-09-03)  02/11 04:00 CST *** -- 
421122088222701 43N7E-23.1d1 (16-GRF-I)  04/27 08:00 CST 15.45 -- 
421122088222702 43N7E-23.1d2 (16-GRF-D)  04/27 08:00 CST 19.35 -- 
421145088194801 43N8E-20.6h1 (17-ALG-S)  04/27 08:00 CST -0.58 -- 
421145088194802 43N8E-20.6h2 (17-ALG-D)  04/27 08:00 CST *** -- 
421321088341101 43N6E-07.1g (MARS-09-01)  04/27 08:00 CST 69.48 -- 
421341088283701 43N6E-01.3b1 (15-COR-S)  04/27 08:00 CST 7.87 -- 
421341088283703 43N6E-01.3b3 (15-COR-D)  04/27 08:00 CST 7.82 -- 
421533088421801 44N5E-30.8c1 (10-MAR-S)  04/27 08:00 CST 3.78 -- 
421547088142301 44N9E-25.1d (WAUC-02-12)  01/26 12:30 CST *** -- 
421626088311401 44N6E-22.4c1 (11-SEN-I)  04/27 08:00 CST 2.26 -- 
421653088370901 44N5E-23.5g (MARN-09-02)  04/27 08:00 CST 16.03 -- 
421653088370902 44N5E-23.5g2 (MARN-10-03)  04/27 08:00 CST 25.17 -- 
421820088154501 44N8E-11.3d1 (13-NUN-I)  04/27 06:45 CST 45.29 -- 
421914088125301 44N9E-05.7d1 (WAUC-08-13)  04/27 07:45 CST 19.96 -- 
422032088222001 45N7E-25.7a (MHEN-08-01)  04/25 16:00 CST 33.15 -- 
422120088330901 45N6E-29.1h (MARN-09-01)  04/27 08:15 CST 30.31 -- 
422308088231001 45N7E-11.5a1 (8-GRN-I)  04/27 08:00 CST 2.96 -- 
422308088231002 45N7E-11.5a2 (8-GRN-D)  04/27 08:00 CST 15.12 -- 
422308088264201 45N7E-08.5a (HEBR-08-02)  04/27 08:00 CST 9.25 -- 
422358088360201 45N5E-12.5h (HARV-09-01)  04/27 08:00 CST 30.20 -- 
422433088140601 45N9E-06.7e (NW-6-45-9)  04/27 08:00 CST 33.79 -- 
422704088385301 46N5E-21.1d1 (1-CHE-S)  04/27 08:00 CST 6.72 -- 
422828088333301 46N6E-08.46l (2-ALD-D)  04/27 08:00 CST 216.89 -- 
422845088285401 46N6E-12.5d (HEBR-09-03)  04/27 08:00 CST 23.08 -- 
422848088191001 46N8E-08.2e1 (4-RCH-S)  04/27 08:30 CST Eqp -- 
422848088191002 46N8E-08.2e2 (4-RCH-I)  04/27 08:30 CST Eqp -- 
422848088191003 46N8E-08.2e3 (4-RCH-D)  04/27 08:30 CST Eqp -- 
422858088235601 46N7E-10.2f (HEBR-08-01)  04/25 11:45 CST 26.28 -- 
422925088255401 46N7E-04.8b1 (3-HEB-I)  10/06 10:00 CST *** -- 
Group Saline County
374453088261701 9S7E-9.4a (SE Illinois College)  04/27 08:00 CST 0.77 -- 
Group Tazewell County
401921089282102 22N3W-29.8a2 (MTH-17N)  04/27 08:15 CST 32.67 -- 
401921089282103 22N3W-29.8a3 (MTH-17WT)  04/27 08:15 CST 5.16 -- 
Group Vermilion County
402558087351501 23N11W-22.8a1 (Hoopeston)  04/26 19:15 CST 21.14 -- 

Data status codes:
  ***     Temporarily unavailable
  --     Parameter not determined
  Eqp     Equipment malfunction